Time;durP1;ratioP1;P1;durP2;ratioP2;P2;SDS_P1;SDS_P2;PMS_P1;PMS_P2;Temp;Humidity;BMP_temperature;BMP_pressure;BME280_temperature;BME280_humidity;BME280_pressure;Samples;Min_cycle;Max_cycle;Signal;HPM_P1;HPM_P2
2023/01/28 00:00:48;;;;;;;22.65;16.67;;;;;;;-0.59;72.38;99472.25;5107260;28;20043;-74
2023/01/28 00:03:16;;;;;;;28.20;18.48;;;;;;;-0.57;72.36;99480.91;5106954;28;20040;-73
2023/01/28 00:05:43;;;;;;;25.05;16.08;;;;;;;-1.07;72.20;99428.34;5107269;28;20176;-73
2023/01/28 00:08:11;;;;;;;26.08;16.17;;;;;;;-0.60;72.44;99486.16;5106235;28;20036;-73
2023/01/28 00:10:38;;;;;;;26.33;16.45;;;;;;;-0.60;72.24;99483.53;5107637;28;20190;-73
2023/01/28 00:13:05;;;;;;;24.65;16.20;;;;;;;-0.58;72.20;99485.25;5107050;28;20043;-73
2023/01/28 00:15:32;;;;;;;24.92;16.13;;;;;;;-0.58;72.13;99495.69;5107204;28;20050;-73
2023/01/28 00:17:59;;;;;;;25.80;17.52;;;;;;;-0.59;72.03;99482.66;5107208;28;20288;-73
2023/01/28 00:20:27;;;;;;;24.98;16.80;;;;;;;-0.60;72.23;99488.75;5106056;28;20039;-73
2023/01/28 00:22:54;;;;;;;25.73;15.65;;;;;;;-0.60;72.15;99487.00;5105747;28;20036;-73
2023/01/28 00:25:21;;;;;;;23.27;15.85;;;;;;;-0.59;72.04;99493.09;5105574;28;20046;-73
2023/01/28 00:27:48;;;;;;;27.20;17.67;;;;;;;-0.62;72.19;99493.97;5106760;28;20194;-73
2023/01/28 00:30:15;;;;;;;24.98;16.88;;;;;;;-0.62;72.39;99482.69;5107232;28;20044;-73
2023/01/28 00:32:41;;;;;;;27.42;18.30;;;;;;;-0.61;72.39;99492.22;5105809;28;20032;-73
2023/01/28 00:35:09;;;;;;;26.20;17.40;;;;;;;-0.60;72.32;99483.53;5107117;28;20048;-73
2023/01/28 00:37:37;;;;;;;28.92;18.75;;;;;;;-0.61;72.41;99474.88;5106840;28;20192;-73
2023/01/28 00:40:05;;;;;;;28.42;18.85;;;;;;;-0.60;72.22;99481.81;5105666;28;20199;-73
2023/01/28 00:42:33;;;;;;;27.73;18.67;;;;;;;-0.60;72.20;99481.81;5105557;28;20051;-73
2023/01/28 00:45:00;;;;;;;30.10;19.00;;;;;;;-0.60;72.13;99481.81;5105573;28;20043;-73
2023/01/28 00:47:27;;;;;;;26.75;18.40;;;;;;;-0.59;72.27;99474.88;5105451;28;20311;-73
2023/01/28 00:49:54;;;;;;;28.30;17.17;;;;;;;-0.79;72.24;99443.78;5105505;28;20047;-73
2023/01/28 00:52:20;;;;;;;27.58;17.80;;;;;;;-0.61;72.34;99474.88;5106610;28;20040;-74
2023/01/28 00:54:49;;;;;;;29.42;19.02;;;;;;;-0.61;72.33;99471.41;5106507;28;20052;-73
2023/01/28 00:57:15;;;;;;;25.10;16.60;;;;;;;-0.62;72.06;99480.09;5106789;28;20044;-74
2023/01/28 00:59:42;;;;;;;31.02;20.45;;;;;;;-0.63;72.19;99476.63;5106726;28;20046;-74
2023/01/28 01:02:12;;;;;;;26.83;17.40;;;;;;;-0.65;72.30;99467.09;5106194;28;20288;-73
2023/01/28 01:04:39;;;;;;;28.48;18.52;;;;;;;-0.65;72.21;99480.97;5105158;28;20044;-74
2023/01/28 01:07:06;;;;;;;30.55;19.00;;;;;;;-0.65;72.40;99483.59;5105221;28;20042;-73
2023/01/28 01:09:33;;;;;;;29.25;20.33;;;;;;;-0.63;72.16;99481.84;5106372;28;20251;-74
2023/01/28 01:12:01;;;;;;;28.45;18.67;;;;;;;-0.82;72.36;99443.81;5105139;28;20234;-73
2023/01/28 01:14:28;;;;;;;30.73;18.88;;;;;;;-0.61;72.19;99489.63;5105905;28;20044;-74
2023/01/28 01:16:54;;;;;;;27.40;18.35;;;;;;;-0.63;72.25;99483.56;5106488;28;20280;-73
2023/01/28 01:19:21;;;;;;;28.75;19.38;;;;;;;-0.62;72.35;99480.09;5105872;28;20044;-74
2023/01/28 01:21:49;;;;;;;29.35;19.10;;;;;;;-0.65;72.28;99480.97;5105866;28;20110;-74
2023/01/28 01:24:16;;;;;;;29.52;19.08;;;;;;;-0.66;72.28;99484.47;5105149;28;20040;-74
2023/01/28 01:26:43;;;;;;;29.80;17.98;;;;;;;-0.65;72.38;99486.19;5104940;28;20040;-74
2023/01/28 01:29:11;;;;;;;31.27;20.92;;;;;;;-0.64;72.34;99487.06;5105970;28;20232;-74
2023/01/28 01:31:38;;;;;;;32.50;19.02;;;;;;;-0.64;72.37;99485.31;5105749;28;20046;-74
2023/01/28 01:34:05;;;;;;;30.02;19.35;;;;;;;-0.66;72.16;99488.81;5106240;28;20043;-75
2023/01/28 01:36:32;;;;;;;27.05;18.23;;;;;;;-0.66;72.40;99492.28;5104774;28;20032;-73
2023/01/28 01:38:59;;;;;;;32.78;18.70;;;;;;;-0.65;72.16;99482.72;5105656;28;20044;-74
2023/01/28 01:41:28;;;;;;;28.23;18.17;;;;;;;-0.68;72.14;99483.59;5106212;28;20058;-73
2023/01/28 01:43:57;;;;;;;33.65;19.23;;;;;;;-0.69;72.42;99492.28;5105580;28;20036;-73
2023/01/28 01:46:32;;;;;;;31.10;19.35;;;;;;;-0.71;72.13;99491.44;5106126;28;20040;-74
2023/01/28 01:49:07;;;;;;;30.25;19.42;;;;;;;-0.71;72.08;99494.03;5105516;28;20044;-74
2023/01/28 01:51:35;;;;;;;29.20;20.05;;;;;;;-0.76;72.42;99491.47;5106095;28;20093;-73
2023/01/28 01:54:03;;;;;;;27.10;17.25;;;;;;;-0.72;72.21;99493.19;5105504;28;20044;-74
2023/01/28 01:56:35;;;;;;;27.65;17.55;;;;;;;-1.42;71.99;99373.13;5105797;28;20040;-73
2023/01/28 01:59:03;;;;;;;26.95;17.80;;;;;;;-0.70;72.14;99495.78;5105539;28;20047;-74
2023/01/28 02:01:32;;;;;;;27.58;17.70;;;;;;;-0.69;71.99;99487.94;5088010;28;20085;-73
2023/01/28 02:04:06;;;;;;;29.35;18.98;;;;;;;-0.69;71.90;99492.28;5104438;28;20105;-73
2023/01/28 02:06:34;;;;;;;27.58;18.73;;;;;;;-0.71;72.02;99494.91;5104569;28;20052;-73
2023/01/28 02:09:02;;;;;;;27.27;17.55;;;;;;;-0.72;71.94;99495.78;5105670;28;20052;-73
2023/01/28 02:11:32;;;;;;;30.65;19.15;;;;;;;-0.72;72.07;99500.13;5105975;28;20272;-73
2023/01/28 02:14:02;;;;;;;28.15;17.55;;;;;;;-0.73;71.97;99493.19;5105422;28;20048;-74
2023/01/28 02:16:31;;;;;;;28.85;19.50;;;;;;;-0.72;71.95;99492.31;5105332;28;20038;-74
2023/01/28 02:18:57;;;;;;;28.40;17.63;;;;;;;-0.73;72.10;99496.66;5105329;28;20040;-74
2023/01/28 02:21:50;;;;;;;30.05;19.55;;;;;;;-0.71;72.20;99499.25;5105236;28;20238;-74
2023/01/28 02:24:54;;;;;;;24.15;17.45;;;;;;;-0.72;72.19;99487.13;5105737;28;20200;-73
2023/01/28 02:27:31;;;;;;;30.20;19.20;;;;;;;-0.71;72.37;99491.44;5105232;28;20048;-73
2023/01/28 02:30:06;;;;;;;30.58;17.95;;;;;;;-0.72;72.19;99500.13;5105728;28;20040;-73
2023/01/28 02:32:39;;;;;;;31.27;20.88;;;;;;;-0.72;72.27;99502.72;5105744;28;20238;-73
2023/01/28 02:35:14;;;;;;;28.13;17.95;;;;;;;-0.70;72.24;99495.78;5105699;28;20043;-74
2023/01/28 02:37:47;;;;;;;28.20;17.83;;;;;;;-0.71;72.21;99489.69;5105675;28;20064;-73
2023/01/28 02:40:20;;;;;;;31.77;18.77;;;;;;;-0.70;72.20;99487.97;5104546;28;20040;-73
2023/01/28 02:42:47;;;;;;;31.10;19.02;;;;;;;-0.69;72.20;99494.91;5105556;28;20177;-73
2023/01/28 02:45:20;;;;;;;30.30;20.88;;;;;;;-0.68;72.09;99505.28;5104161;28;20032;-74
2023/01/28 02:47:58;;;;;;;31.92;19.52;;;;;;;-0.66;72.13;99494.00;5106522;28;20048;-74
2023/01/28 02:50:32;;;;;;;27.95;18.40;;;;;;;-0.67;72.11;99490.53;5107789;28;20036;-73
2023/01/28 02:56:07;;;;;;;29.90;19.40;;;;;;;-0.66;71.96;99501.81;5108786;28;20247;-73
2023/01/28 02:58:41;;;;;;;26.95;17.25;;;;;;;-0.66;72.11;99499.22;5108774;28;20181;-73
2023/01/28 03:01:15;;;;;;;28.75;18.00;;;;;;;-0.68;72.07;99496.63;5108746;28;20089;-73
2023/01/28 03:03:56;;;;;;;26.35;16.40;;;;;;;-0.69;72.13;99498.38;5108351;28;20051;-73
2023/01/28 03:06:28;;;;;;;25.27;17.10;;;;;;;-0.69;72.04;99506.16;5107520;28;20137;-73
2023/01/28 03:36:54;;;;;;;28.60;18.70;;;;;;;-0.73;72.59;99504.47;5106940;28;20043;-73
2023/01/28 03:39:23;;;;;;;28.77;18.50;;;;;;;-0.73;72.75;99501.00;5108249;28;20050;-74
2023/01/28 03:42:01;;;;;;;27.95;18.30;;;;;;;-0.74;72.99;99513.16;5107441;28;20051;-73
2023/01/28 03:47:13;;;;;;;30.17;18.30;;;;;;;-0.78;73.09;99505.38;5106730;28;20253;-74
2023/01/28 03:49:44;;;;;;;29.02;18.65;;;;;;;-0.79;73.25;99517.53;5107533;28;20059;-74
2023/01/28 03:52:11;;;;;;;29.95;19.48;;;;;;;-0.80;73.24;99508.00;5107774;28;20044;-73
2023/01/28 03:54:37;;;;;;;28.13;18.20;;;;;;;-0.79;73.27;99509.72;5106617;28;20028;-73
2023/01/28 03:57:05;;;;;;;28.65;19.45;;;;;;;-0.80;73.28;99502.78;5107685;28;20211;-74
2023/01/28 03:59:32;;;;;;;32.35;20.27;;;;;;;-0.80;73.24;99515.78;5106929;28;20043;-74
2023/01/28 04:02:01;;;;;;;29.17;19.42;;;;;;;-1.28;73.36;99436.31;5106379;28;20046;-74
2023/01/28 04:04:29;;;;;;;30.20;19.75;;;;;;;-0.80;73.45;99522.75;5106419;28;20044;-73
2023/01/28 04:06:57;;;;;;;27.10;17.63;;;;;;;-0.80;73.38;99520.13;5105385;28;20173;-73
2023/01/28 04:09:25;;;;;;;28.08;18.48;;;;;;;-0.82;73.55;99509.75;5106488;28;20046;-74
2023/01/28 04:11:51;;;;;;;28.25;18.27;;;;;;;-0.78;73.30;99514.03;5106106;28;20070;-73
2023/01/28 04:14:19;;;;;;;31.52;19.25;;;;;;;-1.21;73.33;99442.34;5106387;28;20032;-74
2023/01/28 04:16:45;;;;;;;29.90;18.45;;;;;;;-0.75;73.32;99505.34;5106628;28;20046;-74
2023/01/28 04:19:12;;;;;;;29.17;18.17;;;;;;;-0.76;73.35;99506.22;5105217;28;20047;-74
2023/01/28 04:21:40;;;;;;;27.20;17.48;;;;;;;-0.76;73.28;99511.44;5106268;28;20050;-74
2023/01/28 04:24:08;;;;;;;29.23;18.17;;;;;;;-0.77;73.56;99515.78;5105034;28;20046;-74
2023/01/28 04:26:35;;;;;;;30.90;20.02;;;;;;;-0.77;73.67;99520.97;5105066;28;20048;-73
2023/01/28 04:29:02;;;;;;;31.25;19.75;;;;;;;-0.78;73.62;99518.38;5105889;28;20042;-73
2023/01/28 04:31:29;;;;;;;27.88;18.60;;;;;;;-0.81;73.66;99511.47;5106380;28;20036;-73
2023/01/28 04:33:56;;;;;;;29.15;18.63;;;;;;;-1.27;73.47;99448.44;5106101;28;20219;-73
2023/01/28 04:36:23;;;;;;;29.40;19.13;;;;;;;-0.82;73.74;99516.69;5104940;28;20042;-73
2023/01/28 04:38:50;;;;;;;28.70;18.10;;;;;;;-0.80;73.70;99515.78;5104868;28;20036;-73
2023/01/28 04:41:18;;;;;;;29.40;19.83;;;;;;;-0.81;73.51;99524.47;5106209;28;20048;-73
2023/01/28 04:43:45;;;;;;;32.78;18.65;;;;;;;-0.81;73.60;99518.41;5106016;28;20044;-73
2023/01/28 04:46:12;;;;;;;28.83;18.70;;;;;;;-0.82;73.64;99521.88;5105341;28;20036;-73
2023/01/28 04:48:38;;;;;;;30.35;18.88;;;;;;;-0.83;73.73;99521.03;5106051;28;20054;-74
2023/01/28 04:51:06;;;;;;;29.95;18.92;;;;;;;-0.84;73.67;99523.63;5105809;28;20104;-74
2023/01/28 04:53:33;;;;;;;29.75;18.98;;;;;;;-0.83;73.87;99527.97;5104384;28;20059;-73
2023/01/28 04:56:00;;;;;;;29.98;19.13;;;;;;;-0.84;73.99;99528.84;5104610;28;20292;-74
2023/01/28 04:58:28;;;;;;;33.08;20.67;;;;;;;-0.85;73.80;99537.53;5104514;28;20082;-73
2023/01/28 05:00:56;;;;;;;28.73;18.45;;;;;;;-0.86;73.93;99536.66;5104504;28;20040;-74
2023/01/28 05:03:23;;;;;;;29.67;18.17;;;;;;;-0.83;74.00;99530.56;5053878;28;1470837;-74
2023/01/28 05:05:50;;;;;;;29.88;20.17;;;;;;;-1.29;73.96;99464.91;5106556;28;20089;-73
2023/01/28 05:08:18;;;;;;;28.90;17.05;;;;;;;-0.82;74.12;99537.50;5106299;28;20036;-73
2023/01/28 05:10:44;;;;;;;29.05;19.17;;;;;;;-0.81;74.13;99534.88;5105804;28;20044;-73
2023/01/28 05:13:11;;;;;;;26.33;17.08;;;;;;;-3.63;73.87;99050.69;5106252;28;20203;-73
2023/01/28 05:15:39;;;;;;;30.65;19.15;;;;;;;-0.77;74.11;99533.13;5106501;28;20032;-73
2023/01/28 05:18:06;;;;;;;28.58;17.70;;;;;;;-0.80;74.30;99534.00;5105888;28;20044;-73
2023/01/28 05:20:33;;;;;;;30.45;18.73;;;;;;;-0.81;74.30;99531.41;5106437;28;20039;-73
2023/01/28 05:23:00;;;;;;;27.05;19.15;;;;;;;-0.80;74.27;99539.22;5105879;28;20039;-73
2023/01/28 05:25:27;;;;;;;31.40;19.50;;;;;;;-0.81;74.29;99545.28;5106006;28;20044;-73
2023/01/28 05:27:54;;;;;;;29.90;18.13;;;;;;;-1.91;74.18;99355.22;5105827;28;20052;-73
2023/01/28 05:30:22;;;;;;;27.13;18.77;;;;;;;-0.81;74.43;99549.63;5104921;28;20207;-74
2023/01/28 05:32:54;;;;;;;27.50;18.73;;;;;;;-0.81;74.51;99547.03;5105160;28;20040;-74
2023/01/28 05:35:21;;;;;;;26.55;17.38;;;;;;;-0.81;74.48;99550.50;5105982;28;20059;-73
2023/01/28 05:37:47;;;;;;;29.13;18.65;;;;;;;-0.80;74.73;99551.38;5105698;28;20044;-73
2023/01/28 05:40:14;;;;;;;26.88;18.13;;;;;;;-0.81;74.62;99554.84;5104729;28;20036;-73
2023/01/28 05:42:41;;;;;;;27.60;17.75;;;;;;;-0.81;74.56;99547.91;5105945;28;20251;-74
2023/01/28 05:45:09;;;;;;;24.33;16.58;;;;;;;-0.79;74.71;99547.88;5106077;28;20050;-73
2023/01/28 05:47:36;;;;;;;25.95;17.73;;;;;;;-0.82;74.94;99545.31;5105645;28;20050;-73
2023/01/28 05:50:05;;;;;;;26.42;17.55;;;;;;;-0.82;75.00;99553.13;5106091;28;20055;-73
2023/01/28 05:52:32;;;;;;;28.73;17.98;;;;;;;-0.82;75.07;99545.31;5105380;28;20114;-73
2023/01/28 05:55:00;;;;;;;24.85;16.65;;;;;;;-0.83;75.05;99548.78;5105575;28;20358;-73
2023/01/28 05:57:26;;;;;;;24.92;17.95;;;;;;;-0.86;75.08;99548.81;5104668;28;20044;-73
2023/01/28 05:59:53;;;;;;;26.42;17.25;;;;;;;-0.85;75.20;99555.72;5106035;28;20040;-72
2023/01/28 06:02:20;;;;;;;26.52;16.33;;;;;;;-0.88;75.20;99551.41;5105311;28;20036;-72
2023/01/28 06:04:47;;;;;;;28.95;18.48;;;;;;;-0.88;75.28;99558.34;5105535;28;20103;-73
2023/01/28 06:07:18;;;;;;;26.90;18.20;;;;;;;-0.89;75.22;99552.28;5105115;28;20330;-73
2023/01/28 06:09:46;;;;;;;28.20;17.20;;;;;;;-0.94;75.19;99543.66;5105825;28;20255;-73
2023/01/28 06:12:13;;;;;;;25.98;17.20;;;;;;;-0.91;75.15;99551.44;5104545;28;20040;-73
2023/01/28 06:14:40;;;;;;;26.00;19.30;;;;;;;-0.90;75.24;99557.50;5105833;28;20043;-73
2023/01/28 06:17:07;;;;;;;24.75;16.42;;;;;;;-0.87;75.14;99565.28;5105539;28;20044;-73
2023/01/28 06:19:33;;;;;;;27.40;17.55;;;;;;;-0.85;75.17;99566.16;5105885;28;20047;-73
2023/01/28 06:22:00;;;;;;;25.63;15.80;;;;;;;-0.83;75.09;99564.41;5105609;28;20063;-74
2023/01/28 06:24:28;;;;;;;29.40;17.95;;;;;;;-0.81;75.03;99567.84;5109032;28;20044;-73
2023/01/28 06:26:55;;;;;;;27.50;17.63;;;;;;;-0.79;74.91;99568.72;5109560;28;20052;-74
2023/01/28 06:29:22;;;;;;;26.42;17.17;;;;;;;-0.77;74.87;99574.75;5109292;28;20043;-74
2023/01/28 06:31:49;;;;;;;21.08;15.38;;;;;;;-0.76;74.66;99574.75;5109224;28;20055;-74
2023/01/28 06:34:16;;;;;;;27.42;16.40;;;;;;;-0.78;74.59;99568.69;5107981;28;20040;-73
2023/01/28 06:36:43;;;;;;;22.38;15.23;;;;;;;-0.80;74.80;99575.66;5108059;28;20063;-74
2023/01/28 06:39:10;;;;;;;25.85;16.50;;;;;;;-0.78;74.76;99581.72;5108801;28;20046;-74
2023/01/28 06:41:38;;;;;;;28.17;17.70;;;;;;;-0.79;74.93;99584.31;5108184;28;20048;-74
2023/01/28 06:44:05;;;;;;;26.23;18.13;;;;;;;-0.77;74.77;99595.59;5109282;28;20046;-74
2023/01/28 06:46:32;;;;;;;27.40;17.45;;;;;;;-0.77;74.78;99591.25;5108710;28;20040;-74
2023/01/28 06:48:59;;;;;;;25.67;17.38;;;;;;;-0.78;74.75;99588.66;5108696;28;20087;-73
2023/01/28 06:51:26;;;;;;;26.63;15.80;;;;;;;-0.78;74.64;99596.47;5108892;28;20043;-74
2023/01/28 06:53:52;;;;;;;26.38;15.60;;;;;;;-0.78;74.83;99597.31;5107781;28;20032;-74
2023/01/28 06:56:19;;;;;;;26.20;19.05;;;;;;;-0.77;74.72;99596.44;5107709;28;20032;-74
2023/01/28 06:58:47;;;;;;;26.40;16.83;;;;;;;-0.76;74.82;99607.72;5108800;28;20039;-74
2023/01/28 07:01:14;;;;;;;27.60;16.70;;;;;;;-0.78;74.78;99599.06;5108745;28;20054;-74
2023/01/28 07:03:41;;;;;;;30.75;18.27;;;;;;;-0.77;74.87;99611.19;5107678;28;20055;-74
2023/01/28 07:06:08;;;;;;;29.65;18.92;;;;;;;-0.75;74.98;99615.53;5108306;28;20051;-74
2023/01/28 07:08:36;;;;;;;26.38;17.50;;;;;;;-0.74;74.99;99609.44;5108253;28;20036;-74
2023/01/28 07:11:03;;;;;;;26.13;17.95;;;;;;;-0.74;74.92;99609.44;5108595;28;20332;-74
2023/01/28 07:13:30;;;;;;;32.00;19.65;;;;;;;-0.72;75.17;99612.03;5107626;28;20036;-74
2023/01/28 07:15:58;;;;;;;29.40;18.10;;;;;;;-0.72;75.19;99607.69;5108454;28;20040;-74
2023/01/28 07:18:25;;;;;;;29.90;18.80;;;;;;;-0.72;75.02;99607.69;5108701;28;20055;-74
2023/01/28 07:20:53;;;;;;;30.42;18.17;;;;;;;-0.70;75.20;99605.09;5108524;28;20044;-74
2023/01/28 07:23:19;;;;;;;28.52;17.98;;;;;;;-0.71;75.14;99609.44;5107132;28;20048;-74
2023/01/28 07:25:46;;;;;;;29.25;19.58;;;;;;;-0.72;75.29;99607.69;5107843;28;20066;-74
2023/01/28 07:28:13;;;;;;;30.02;18.30;;;;;;;-0.74;75.25;99605.97;5107899;28;20059;-74
2023/01/28 07:30:40;;;;;;;30.90;18.25;;;;;;;-0.78;75.35;99601.66;5107730;28;20062;-74
2023/01/28 07:33:08;;;;;;;31.05;20.75;;;;;;;-0.97;75.63;99563.59;5108324;28;20052;-74
2023/01/28 07:35:35;;;;;;;33.03;21.27;;;;;;;-0.77;75.79;99603.41;5108340;28;20040;-74
2023/01/28 07:38:01;;;;;;;33.25;21.02;;;;;;;-0.76;75.85;99606.00;5108052;28;20319;-74
2023/01/28 07:40:29;;;;;;;29.85;19.80;;;;;;;-0.76;75.77;99611.19;5108216;28;20067;-74
2023/01/28 07:42:56;;;;;;;31.10;18.00;;;;;;;-1.38;75.67;99516.09;5107595;28;20357;-74
2023/01/28 07:45:24;;;;;;;32.38;19.00;;;;;;;-0.74;75.69;99609.44;5108324;28;20219;-74
2023/01/28 07:47:55;;;;;;;29.35;18.63;;;;;;;-0.73;75.79;99616.38;5107012;28;20054;-74
2023/01/28 07:50:24;;;;;;;32.05;19.70;;;;;;;-0.70;75.65;99613.75;5107429;28;20040;-74
2023/01/28 07:52:51;;;;;;;27.42;18.27;;;;;;;-0.67;75.60;99618.09;5106564;28;20070;-74
2023/01/28 07:55:18;;;;;;;27.98;17.70;;;;;;;-0.68;75.78;99619.81;5107640;28;20040;-74
2023/01/28 07:57:52;;;;;;;30.25;19.17;;;;;;;-0.80;75.89;99600.81;5107568;28;20195;-74
2023/01/28 08:00:20;;;;;;;29.95;19.08;;;;;;;-0.78;75.73;99610.34;5106408;28;20036;-74
2023/01/28 08:02:48;;;;;;;32.38;18.52;;;;;;;-0.64;75.71;99623.28;5106076;28;20323;-74
2023/01/28 08:05:17;;;;;;;31.63;19.02;;;;;;;-0.61;75.72;99631.06;5106173;28;20040;-74
2023/01/28 08:07:47;;;;;;;28.30;17.80;;;;;;;-0.61;75.75;99638.88;5107133;28;20039;-74
2023/01/28 08:10:15;;;;;;;33.15;20.25;;;;;;;-0.59;75.89;99638.88;5107449;28;20051;-74
2023/01/28 08:12:50;;;;;;;26.67;18.80;;;;;;;-0.58;75.98;99641.47;5106199;28;20065;-73
2023/01/28 08:15:17;;;;;;;27.55;17.98;;;;;;;-0.56;76.08;99651.88;5106094;28;20054;-74
2023/01/28 08:17:43;;;;;;;31.50;20.58;;;;;;;-0.55;76.21;99636.22;5107540;28;20050;-74
2023/01/28 08:20:12;;;;;;;29.02;19.63;;;;;;;-0.51;76.18;99652.69;5106800;28;20051;-74
2023/01/28 08:22:39;;;;;;;28.90;18.85;;;;;;;-0.48;76.41;99650.94;5105912;28;20074;-74
2023/01/28 08:25:08;;;;;;;31.45;19.13;;;;;;;-0.49;76.27;99648.34;5105673;28;20040;-74
2023/01/28 08:27:35;;;;;;;23.63;17.10;;;;;;;-0.48;76.21;99660.50;5106472;28;20051;-74
2023/01/28 08:30:02;;;;;;;28.85;19.48;;;;;;;-0.47;76.28;99663.09;5107156;28;20062;-74
2023/01/28 08:32:29;;;;;;;25.25;16.88;;;;;;;-0.50;76.48;99665.72;5106977;28;20204;-74
2023/01/28 08:34:55;;;;;;;32.00;17.27;;;;;;;-0.47;76.74;99662.22;5105812;28;20043;-74
2023/01/28 08:37:22;;;;;;;29.10;19.10;;;;;;;-1.04;76.58;99604.38;5106821;28;20052;-74
2023/01/28 08:39:49;;;;;;;25.40;17.08;;;;;;;-0.45;76.58;99669.16;5106857;28;20036;-74
2023/01/28 08:42:18;;;;;;;25.33;16.52;;;;;;;-0.44;76.60;99660.47;5106968;28;20081;-74
2023/01/28 08:44:46;;;;;;;30.02;18.75;;;;;;;-0.44;76.69;99672.63;5104951;28;20074;-74
2023/01/28 08:47:13;;;;;;;28.92;18.02;;;;;;;-0.45;76.74;99679.56;5106967;28;20044;-74
2023/01/28 08:49:40;;;;;;;31.33;18.67;;;;;;;-0.43;76.64;99672.63;5106005;28;20047;-74
2023/01/28 08:52:07;;;;;;;26.70;18.17;;;;;;;-0.41;76.55;99672.59;5106737;28;20052;-74
2023/01/28 08:54:35;;;;;;;26.90;18.33;;;;;;;-1.09;76.54;99560.16;5106184;28;20036;-74
2023/01/28 08:57:02;;;;;;;28.83;18.95;;;;;;;-0.40;76.51;99670.00;5106420;28;20040;-74
2023/01/28 08:59:30;;;;;;;29.33;18.55;;;;;;;-0.40;76.60;99671.72;5105825;28;20185;-75
2023/01/28 09:01:57;;;;;;;28.63;18.35;;;;;;;-0.39;76.45;99681.28;5105836;28;20089;-74
2023/01/28 09:04:24;;;;;;;26.75;17.23;;;;;;;-0.37;76.47;99676.91;5104845;28;20061;-74
2023/01/28 09:06:50;;;;;;;28.10;17.42;;;;;;;-0.36;76.55;99674.31;5105881;28;20295;-74
2023/01/28 09:09:17;;;;;;;25.48;17.48;;;;;;;-0.33;76.31;99685.59;5105758;28;20051;-74
2023/01/28 09:11:44;;;;;;;28.13;18.25;;;;;;;-0.34;76.54;99682.13;5106056;28;20043;-75
2023/01/28 09:14:11;;;;;;;27.65;18.08;;;;;;;-0.33;76.57;99681.25;5106012;28;20055;-75
2023/01/28 09:16:39;;;;;;;26.90;18.05;;;;;;;-0.31;76.31;99689.03;5106037;28;20031;-74
2023/01/28 09:19:06;;;;;;;27.52;18.45;;;;;;;-0.32;76.58;99685.56;5105745;28;20036;-74
2023/01/28 09:21:33;;;;;;;27.02;18.25;;;;;;;-0.32;76.56;99689.91;5104612;28;20198;-75
2023/01/28 09:23:59;;;;;;;28.83;18.73;;;;;;;-0.32;76.54;99690.78;5104775;28;20326;-74
2023/01/28 09:26:26;;;;;;;31.92;20.10;;;;;;;-0.32;76.40;99688.19;5105714;28;20040;-74
2023/01/28 09:28:53;;;;;;;28.05;18.65;;;;;;;-0.30;76.48;99696.84;5105547;28;20058;-74
2023/01/28 09:31:19;;;;;;;26.30;16.92;;;;;;;-0.27;76.41;99694.22;5105250;28;20187;-75
2023/01/28 09:33:53;;;;;;;28.20;18.02;;;;;;;-0.26;76.22;99695.97;5105601;28;20127;-74
2023/01/28 09:36:20;;;;;;;26.90;16.92;;;;;;;-0.24;76.15;99691.59;5105184;28;20051;-75
2023/01/28 09:38:47;;;;;;;28.65;18.33;;;;;;;-0.22;76.20;99696.81;5104411;28;20054;-74
2023/01/28 09:41:25;;;;;;;28.25;18.55;;;;;;;-0.65;76.19;99618.94;5105041;28;20039;-75
2023/01/28 09:44:03;;;;;;;29.65;18.70;;;;;;;-0.20;76.18;99702.88;5105314;28;20058;-75
2023/01/28 09:46:32;;;;;;;27.98;17.35;;;;;;;-0.18;76.28;99703.72;5104427;28;20204;-75
2023/01/28 09:49:05;;;;;;;27.65;17.67;;;;;;;-0.20;76.38;99702.88;5105201;28;20048;-75
2023/01/28 09:51:36;;;;;;;27.95;17.63;;;;;;;-0.16;76.46;99707.19;5104352;28;20054;-74
2023/01/28 09:54:11;;;;;;;24.67;17.13;;;;;;;-0.79;76.34;99597.34;5105321;28;20058;-74
2023/01/28 09:56:45;;;;;;;24.95;16.52;;;;;;;-0.12;76.34;99701.06;5105946;28;20043;-74
2023/01/28 09:59:19;;;;;;;29.13;17.55;;;;;;;-0.14;76.42;99703.69;5110093;28;20052;-74
2023/01/28 10:01:53;;;;;;;23.10;16.67;;;;;;;-0.12;76.47;99708.91;5109415;28;20050;-74
2023/01/28 10:04:36;;;;;;;25.70;17.40;;;;;;;-0.13;76.71;99705.41;5109356;28;20223;-74
2023/01/28 10:07:18;;;;;;;28.00;17.85;;;;;;;-0.12;76.73;99695.88;5108569;28;20032;-74
2023/01/28 10:09:50;;;;;;;24.08;16.55;;;;;;;-0.11;76.42;99701.06;5108583;28;20065;-75
2023/01/28 10:12:36;;;;;;;24.83;16.15;;;;;;;-0.11;76.77;99695.84;5109221;28;20039;-74
2023/01/28 10:15:45;;;;;;;24.58;16.15;;;;;;;-0.09;76.76;99688.03;5109379;28;20047;-74
2023/01/28 10:18:14;;;;;;;26.42;15.95;;;;;;;-0.09;76.51;99704.53;5047952;28;20057;-74
2023/01/28 10:20:46;;;;;;;27.63;18.35;;;;;;;-0.07;76.40;99694.09;5100969;28;20060;-74
2023/01/28 10:23:19;;;;;;;28.00;17.90;;;;;;;-0.05;76.24;99687.13;5109797;28;20052;-74
2023/01/28 10:25:48;;;;;;;26.30;17.63;;;;;;;-0.04;76.19;99683.66;5109255;28;20047;-74
2023/01/28 10:28:20;;;;;;;27.70;18.33;;;;;;;-0.05;76.23;99679.31;5108286;28;20089;-74
2023/01/28 10:30:48;;;;;;;29.05;17.27;;;;;;;-2.97;75.84;99187.88;5108109;28;20045;-73
2023/01/28 10:33:18;;;;;;;28.88;18.42;;;;;;;-0.05;76.14;99681.91;5109049;28;20035;-74
2023/01/28 10:35:48;;;;;;;28.70;18.20;;;;;;;-1.03;75.95;99528.91;5109584;28;20035;-74
2023/01/28 10:38:17;;;;;;;26.25;15.52;;;;;;;-0.03;76.19;99693.19;5109296;28;20047;-73
2023/01/28 10:40:46;;;;;;;26.90;17.52;;;;;;;-0.01;76.10;99691.44;5108790;28;20032;-74
2023/01/28 10:43:15;;;;;;;28.95;17.83;;;;;;;-0.15;76.10;99667.22;5108734;28;20085;-74
2023/01/28 10:45:48;;;;;;;24.83;16.23;;;;;;;0.01;76.14;99694.03;5108693;28;20040;-73
2023/01/28 10:48:21;;;;;;;24.70;17.40;;;;;;;0.01;76.26;99694.91;5109179;28;20039;-74
2023/01/28 10:50:58;;;;;;;28.05;16.23;;;;;;;-0.13;76.43;99671.56;5108678;28;20044;-74
2023/01/28 10:53:35;;;;;;;30.05;18.40;;;;;;;0.06;76.28;99693.13;5108994;28;20315;-74
2023/01/28 10:56:04;;;;;;;27.92;18.08;;;;;;;0.08;75.88;99686.16;5108619;28;20199;-74
2023/01/28 10:58:34;;;;;;;27.30;15.88;;;;;;;0.09;76.01;99698.31;5108776;28;20036;-74
2023/01/28 11:01:05;;;;;;;26.98;17.40;;;;;;;0.08;75.95;99695.72;5108371;28;20035;-74
2023/01/28 11:03:34;;;;;;;27.05;16.05;;;;;;;0.07;75.96;99704.41;5107201;28;20044;-74
2023/01/28 11:06:03;;;;;;;29.08;16.75;;;;;;;0.06;76.14;99698.34;5108360;28;20074;-74
2023/01/28 11:08:31;;;;;;;26.83;17.15;;;;;;;0.06;76.02;99693.13;5107179;28;20231;-74
2023/01/28 11:10:59;;;;;;;26.50;16.42;;;;;;;0.07;76.05;99689.66;5107927;28;20085;-74
2023/01/28 11:13:28;;;;;;;26.40;17.02;;;;;;;0.06;76.06;99682.72;5108392;28;20052;-73
2023/01/28 11:16:00;;;;;;;27.40;17.55;;;;;;;-0.11;76.13;99661.97;5108405;28;20315;-74
2023/01/28 11:18:31;;;;;;;27.48;17.92;;;;;;;0.08;75.99;99691.38;5107679;28;20062;-74
2023/01/28 11:21:01;;;;;;;30.50;18.17;;;;;;;0.10;76.00;99692.22;5107287;28;20036;-74
2023/01/28 11:23:33;;;;;;;31.67;17.73;;;;;;;0.09;75.91;99690.50;5107764;28;20284;-74
2023/01/28 11:26:03;;;;;;;30.85;18.42;;;;;;;0.10;76.06;99696.59;5107849;28;20188;-74
2023/01/28 11:28:33;;;;;;;32.85;19.30;;;;;;;0.10;75.94;99692.22;5107582;28;20048;-74
2023/01/28 11:31:04;;;;;;;35.85;20.35;;;;;;;0.10;76.10;99693.97;5108072;28;20062;-74
2023/01/28 11:33:36;;;;;;;28.35;18.40;;;;;;;0.11;76.37;99695.69;5106818;28;20123;-74
2023/01/28 11:36:13;;;;;;;28.63;18.67;;;;;;;-0.31;76.35;99624.78;5108070;28;20107;-73
2023/01/28 11:38:51;;;;;;;30.55;17.25;;;;;;;0.11;76.65;99691.34;5107992;28;20307;-74
2023/01/28 11:41:19;;;;;;;31.35;19.92;;;;;;;0.11;76.58;99698.31;5108039;28;20032;-74
2023/01/28 11:43:46;;;;;;;27.05;17.63;;;;;;;0.11;76.50;99688.75;5106740;28;20303;-74
2023/01/28 11:46:32;;;;;;;27.88;18.17;;;;;;;0.12;76.69;99693.09;5106596;28;20039;-74
2023/01/28 11:49:07;;;;;;;27.95;17.35;;;;;;;-0.93;76.35;99518.50;5108045;28;20044;-74
2023/01/28 11:51:42;;;;;;;28.65;18.45;;;;;;;0.12;76.72;99692.22;5107368;28;20042;-74
2023/01/28 11:54:24;;;;;;;26.80;17.17;;;;;;;0.13;76.80;99692.22;5107575;28;20055;-74
2023/01/28 11:57:12;;;;;;;29.08;18.10;;;;;;;0.12;76.39;99685.28;5107331;28;20040;-74
2023/01/28 11:59:53;;;;;;;29.00;17.45;;;;;;;0.11;76.34;99678.31;5107524;28;20062;-75